sensor_id;sensor_type;location;lat;lon;timestamp;P1;durP1;ratioP1;P2;durP2;ratioP2
58864;SDS011;45702;52.982;6.658;2024-02-21T00:00:02;30.02;;;5.78;;
58864;SDS011;45702;52.982;6.658;2024-02-21T00:02:30;29.15;;;6.30;;
58864;SDS011;45702;52.982;6.658;2024-02-21T00:04:56;34.03;;;6.50;;
58864;SDS011;45702;52.982;6.658;2024-02-21T00:07:22;27.70;;;5.78;;
58864;SDS011;45702;52.982;6.658;2024-02-21T00:09:48;35.08;;;6.40;;
58864;SDS011;45702;52.982;6.658;2024-02-21T00:12:14;28.50;;;6.03;;
58864;SDS011;45702;52.982;6.658;2024-02-21T00:14:40;29.20;;;6.13;;
58864;SDS011;45702;52.982;6.658;2024-02-21T00:17:06;26.73;;;6.00;;
58864;SDS011;45702;52.982;6.658;2024-02-21T00:19:33;26.85;;;5.63;;
58864;SDS011;45702;52.982;6.658;2024-02-21T00:22:00;31.70;;;5.85;;
58864;SDS011;45702;52.982;6.658;2024-02-21T00:24:26;27.23;;;5.82;;
58864;SDS011;45702;52.982;6.658;2024-02-21T00:26:53;28.73;;;5.22;;
58864;SDS011;45702;52.982;6.658;2024-02-21T00:29:19;28.55;;;5.95;;
58864;SDS011;45702;52.982;6.658;2024-02-21T00:31:45;29.38;;;5.97;;
58864;SDS011;45702;52.982;6.658;2024-02-21T00:34:11;28.05;;;5.60;;
58864;SDS011;45702;52.982;6.658;2024-02-21T00:36:38;35.20;;;6.18;;
58864;SDS011;45702;52.982;6.658;2024-02-21T00:39:04;35.10;;;5.38;;
58864;SDS011;45702;52.982;6.658;2024-02-21T00:41:31;25.48;;;5.72;;
58864;SDS011;45702;52.982;6.658;2024-02-21T00:43:57;27.77;;;5.63;;
58864;SDS011;45702;52.982;6.658;2024-02-21T00:46:23;31.48;;;5.28;;
58864;SDS011;45702;52.982;6.658;2024-02-21T00:48:49;25.38;;;5.93;;
58864;SDS011;45702;52.982;6.658;2024-02-21T00:51:16;23.80;;;6.07;;
58864;SDS011;45702;52.982;6.658;2024-02-21T00:53:42;32.72;;;5.68;;
58864;SDS011;45702;52.982;6.658;2024-02-21T00:56:08;36.40;;;6.25;;
58864;SDS011;45702;52.982;6.658;2024-02-21T00:58:34;35.92;;;6.22;;
58864;SDS011;45702;52.982;6.658;2024-02-21T01:01:01;38.40;;;6.18;;
58864;SDS011;45702;52.982;6.658;2024-02-21T01:03:28;34.83;;;6.60;;
58864;SDS011;45702;52.982;6.658;2024-02-21T01:05:54;30.67;;;5.97;;
58864;SDS011;45702;52.982;6.658;2024-02-21T01:08:20;32.58;;;6.25;;
58864;SDS011;45702;52.982;6.658;2024-02-21T01:10:46;32.35;;;6.05;;
58864;SDS011;45702;52.982;6.658;2024-02-21T01:13:12;36.75;;;6.65;;
58864;SDS011;45702;52.982;6.658;2024-02-21T01:15:38;30.23;;;6.13;;
58864;SDS011;45702;52.982;6.658;2024-02-21T01:18:04;41.38;;;6.50;;
58864;SDS011;45702;52.982;6.658;2024-02-21T01:20:30;30.30;;;6.07;;
58864;SDS011;45702;52.982;6.658;2024-02-21T01:22:56;37.95;;;6.10;;
58864;SDS011;45702;52.982;6.658;2024-02-21T01:25:22;30.25;;;5.95;;
58864;SDS011;45702;52.982;6.658;2024-02-21T01:27:49;33.90;;;6.10;;
58864;SDS011;45702;52.982;6.658;2024-02-21T01:30:15;23.13;;;5.50;;
58864;SDS011;45702;52.982;6.658;2024-02-21T01:32:41;30.67;;;6.10;;
58864;SDS011;45702;52.982;6.658;2024-02-21T01:35:07;35.33;;;6.75;;
58864;SDS011;45702;52.982;6.658;2024-02-21T01:37:33;36.33;;;6.43;;
58864;SDS011;45702;52.982;6.658;2024-02-21T01:39:59;28.88;;;6.28;;
58864;SDS011;45702;52.982;6.658;2024-02-21T01:42:25;40.53;;;6.13;;
58864;SDS011;45702;52.982;6.658;2024-02-21T01:44:51;33.95;;;6.43;;
58864;SDS011;45702;52.982;6.658;2024-02-21T01:47:17;37.00;;;6.93;;
58864;SDS011;45702;52.982;6.658;2024-02-21T01:49:45;33.55;;;7.00;;
58864;SDS011;45702;52.982;6.658;2024-02-21T01:52:11;39.58;;;8.00;;
58864;SDS011;45702;52.982;6.658;2024-02-21T01:54:39;38.55;;;8.52;;
58864;SDS011;45702;52.982;6.658;2024-02-21T01:57:05;44.75;;;8.48;;
58864;SDS011;45702;52.982;6.658;2024-02-21T01:59:31;46.20;;;9.10;;
58864;SDS011;45702;52.982;6.658;2024-02-21T02:01:58;51.10;;;10.27;;
58864;SDS011;45702;52.982;6.658;2024-02-21T02:04:24;35.65;;;9.52;;
58864;SDS011;45702;52.982;6.658;2024-02-21T02:06:51;42.42;;;10.25;;
58864;SDS011;45702;52.982;6.658;2024-02-21T02:09:18;51.63;;;12.68;;
58864;SDS011;45702;52.982;6.658;2024-02-21T02:11:44;48.45;;;11.50;;
58864;SDS011;45702;52.982;6.658;2024-02-21T02:14:10;44.17;;;12.65;;
58864;SDS011;45702;52.982;6.658;2024-02-21T02:16:36;51.88;;;14.38;;
58864;SDS011;45702;52.982;6.658;2024-02-21T02:19:03;62.83;;;13.82;;
58864;SDS011;45702;52.982;6.658;2024-02-21T02:21:29;60.78;;;14.05;;
58864;SDS011;45702;52.982;6.658;2024-02-21T02:23:56;64.22;;;14.02;;
58864;SDS011;45702;52.982;6.658;2024-02-21T02:26:22;47.55;;;13.48;;
58864;SDS011;45702;52.982;6.658;2024-02-21T02:28:48;52.97;;;13.65;;
58864;SDS011;45702;52.982;6.658;2024-02-21T02:31:15;59.33;;;13.77;;
58864;SDS011;45702;52.982;6.658;2024-02-21T02:33:42;53.72;;;13.60;;
58864;SDS011;45702;52.982;6.658;2024-02-21T02:36:09;59.40;;;13.10;;
58864;SDS011;45702;52.982;6.658;2024-02-21T02:38:35;47.30;;;12.93;;
58864;SDS011;45702;52.982;6.658;2024-02-21T02:41:02;49.50;;;12.45;;
58864;SDS011;45702;52.982;6.658;2024-02-21T02:43:28;51.45;;;12.35;;
58864;SDS011;45702;52.982;6.658;2024-02-21T02:45:54;45.60;;;11.80;;
58864;SDS011;45702;52.982;6.658;2024-02-21T02:48:20;51.92;;;11.40;;
58864;SDS011;45702;52.982;6.658;2024-02-21T02:50:46;42.70;;;11.40;;
58864;SDS011;45702;52.982;6.658;2024-02-21T02:53:14;38.67;;;10.98;;
58864;SDS011;45702;52.982;6.658;2024-02-21T02:55:40;35.92;;;10.13;;
58864;SDS011;45702;52.982;6.658;2024-02-21T02:58:06;45.72;;;10.18;;
58864;SDS011;45702;52.982;6.658;2024-02-21T03:00:33;45.67;;;10.60;;
58864;SDS011;45702;52.982;6.658;2024-02-21T03:03:01;46.65;;;11.13;;
58864;SDS011;45702;52.982;6.658;2024-02-21T03:05:30;48.15;;;10.90;;
58864;SDS011;45702;52.982;6.658;2024-02-21T03:07:56;42.13;;;10.02;;
58864;SDS011;45702;52.982;6.658;2024-02-21T03:10:22;52.45;;;10.82;;
58864;SDS011;45702;52.982;6.658;2024-02-21T03:12:49;43.60;;;10.60;;
58864;SDS011;45702;52.982;6.658;2024-02-21T03:15:17;46.75;;;11.73;;
58864;SDS011;45702;52.982;6.658;2024-02-21T03:17:44;53.55;;;11.02;;
58864;SDS011;45702;52.982;6.658;2024-02-21T03:20:10;39.55;;;9.93;;
58864;SDS011;45702;52.982;6.658;2024-02-21T03:22:37;40.58;;;11.07;;
58864;SDS011;45702;52.982;6.658;2024-02-21T03:25:03;50.33;;;12.05;;
58864;SDS011;45702;52.982;6.658;2024-02-21T03:27:29;46.25;;;12.07;;
58864;SDS011;45702;52.982;6.658;2024-02-21T03:29:55;43.00;;;11.07;;
58864;SDS011;45702;52.982;6.658;2024-02-21T03:32:21;50.88;;;11.27;;
58864;SDS011;45702;52.982;6.658;2024-02-21T03:34:47;45.70;;;11.80;;
58864;SDS011;45702;52.982;6.658;2024-02-21T03:37:13;56.38;;;12.30;;
58864;SDS011;45702;52.982;6.658;2024-02-21T03:39:40;65.13;;;12.60;;
58864;SDS011;45702;52.982;6.658;2024-02-21T03:42:06;57.20;;;12.30;;
58864;SDS011;45702;52.982;6.658;2024-02-21T03:44:32;56.53;;;12.52;;
58864;SDS011;45702;52.982;6.658;2024-02-21T03:47:01;67.63;;;14.25;;
58864;SDS011;45702;52.982;6.658;2024-02-21T03:49:27;46.28;;;11.65;;
58864;SDS011;45702;52.982;6.658;2024-02-21T03:51:53;54.97;;;13.20;;
58864;SDS011;45702;52.982;6.658;2024-02-21T03:54:20;62.53;;;13.32;;
58864;SDS011;45702;52.982;6.658;2024-02-21T03:56:46;63.40;;;14.70;;
58864;SDS011;45702;52.982;6.658;2024-02-21T03:59:13;51.50;;;13.50;;
58864;SDS011;45702;52.982;6.658;2024-02-21T04:01:39;57.35;;;14.02;;
58864;SDS011;45702;52.982;6.658;2024-02-21T04:04:05;53.80;;;13.52;;
58864;SDS011;45702;52.982;6.658;2024-02-21T04:06:31;54.28;;;14.65;;
58864;SDS011;45702;52.982;6.658;2024-02-21T04:08:57;56.25;;;14.27;;
58864;SDS011;45702;52.982;6.658;2024-02-21T04:11:24;55.20;;;13.93;;
58864;SDS011;45702;52.982;6.658;2024-02-21T04:13:50;51.60;;;14.88;;
58864;SDS011;45702;52.982;6.658;2024-02-21T04:16:16;54.83;;;14.23;;
58864;SDS011;45702;52.982;6.658;2024-02-21T04:18:43;64.75;;;14.55;;
58864;SDS011;45702;52.982;6.658;2024-02-21T04:21:14;57.40;;;14.15;;
58864;SDS011;45702;52.982;6.658;2024-02-21T04:23:41;56.78;;;14.80;;
58864;SDS011;45702;52.982;6.658;2024-02-21T04:26:07;55.13;;;14.85;;
58864;SDS011;45702;52.982;6.658;2024-02-21T04:28:33;52.92;;;15.88;;
58864;SDS011;45702;52.982;6.658;2024-02-21T04:30:59;59.00;;;14.15;;
58864;SDS011;45702;52.982;6.658;2024-02-21T04:33:25;51.70;;;14.77;;
58864;SDS011;45702;52.982;6.658;2024-02-21T04:35:52;59.85;;;15.38;;
58864;SDS011;45702;52.982;6.658;2024-02-21T04:38:20;56.72;;;15.32;;
58864;SDS011;45702;52.982;6.658;2024-02-21T04:40:46;61.50;;;15.75;;
58864;SDS011;45702;52.982;6.658;2024-02-21T04:43:12;58.25;;;15.88;;
58864;SDS011;45702;52.982;6.658;2024-02-21T04:45:38;66.15;;;16.58;;
58864;SDS011;45702;52.982;6.658;2024-02-21T04:48:04;63.28;;;16.52;;
58864;SDS011;45702;52.982;6.658;2024-02-21T04:50:30;59.33;;;14.90;;
58864;SDS011;45702;52.982;6.658;2024-02-21T04:52:56;57.55;;;15.60;;
58864;SDS011;45702;52.982;6.658;2024-02-21T04:55:22;67.03;;;15.48;;
58864;SDS011;45702;52.982;6.658;2024-02-21T04:57:48;67.95;;;16.08;;
58864;SDS011;45702;52.982;6.658;2024-02-21T05:00:14;71.53;;;15.43;;
58864;SDS011;45702;52.982;6.658;2024-02-21T05:02:40;68.15;;;15.52;;
58864;SDS011;45702;52.982;6.658;2024-02-21T05:05:06;69.57;;;16.15;;
58864;SDS011;45702;52.982;6.658;2024-02-21T05:07:34;65.40;;;16.08;;
58864;SDS011;45702;52.982;6.658;2024-02-21T05:10:00;76.55;;;15.77;;
58864;SDS011;45702;52.982;6.658;2024-02-21T05:12:26;67.25;;;15.13;;
58864;SDS011;45702;52.982;6.658;2024-02-21T05:14:53;71.63;;;16.77;;
58864;SDS011;45702;52.982;6.658;2024-02-21T05:17:19;71.63;;;16.33;;
58864;SDS011;45702;52.982;6.658;2024-02-21T05:19:45;74.95;;;16.85;;
58864;SDS011;45702;52.982;6.658;2024-02-21T05:22:11;77.10;;;17.42;;
58864;SDS011;45702;52.982;6.658;2024-02-21T05:24:38;72.13;;;17.63;;
58864;SDS011;45702;52.982;6.658;2024-02-21T05:27:05;75.65;;;17.13;;
58864;SDS011;45702;52.982;6.658;2024-02-21T05:29:31;87.30;;;18.70;;
58864;SDS011;45702;52.982;6.658;2024-02-21T05:31:57;87.03;;;19.38;;
58864;SDS011;45702;52.982;6.658;2024-02-21T05:34:23;81.00;;;18.58;;
58864;SDS011;45702;52.982;6.658;2024-02-21T05:36:50;99.85;;;19.23;;
58864;SDS011;45702;52.982;6.658;2024-02-21T05:39:16;91.57;;;19.60;;
58864;SDS011;45702;52.982;6.658;2024-02-21T05:41:42;78.95;;;19.50;;
58864;SDS011;45702;52.982;6.658;2024-02-21T05:44:08;87.53;;;18.42;;
58864;SDS011;45702;52.982;6.658;2024-02-21T05:46:34;85.63;;;19.38;;
58864;SDS011;45702;52.982;6.658;2024-02-21T05:49:01;92.60;;;19.40;;
58864;SDS011;45702;52.982;6.658;2024-02-21T05:51:27;86.43;;;19.17;;
58864;SDS011;45702;52.982;6.658;2024-02-21T05:53:53;83.88;;;18.83;;
58864;SDS011;45702;52.982;6.658;2024-02-21T05:56:19;88.88;;;18.42;;
58864;SDS011;45702;52.982;6.658;2024-02-21T05:58:45;84.97;;;18.75;;
58864;SDS011;45702;52.982;6.658;2024-02-21T06:01:11;90.57;;;19.73;;
58864;SDS011;45702;52.982;6.658;2024-02-21T06:03:37;92.95;;;18.73;;
58864;SDS011;45702;52.982;6.658;2024-02-21T06:06:03;84.00;;;18.38;;
58864;SDS011;45702;52.982;6.658;2024-02-21T06:08:30;86.43;;;18.00;;
58864;SDS011;45702;52.982;6.658;2024-02-21T06:10:56;89.00;;;16.55;;
58864;SDS011;45702;52.982;6.658;2024-02-21T06:13:23;89.82;;;17.73;;
58864;SDS011;45702;52.982;6.658;2024-02-21T06:15:49;94.35;;;18.20;;
58864;SDS011;45702;52.982;6.658;2024-02-21T06:18:19;90.78;;;17.88;;
58864;SDS011;45702;52.982;6.658;2024-02-21T06:20:45;82.95;;;15.85;;
58864;SDS011;45702;52.982;6.658;2024-02-21T06:23:12;97.25;;;17.75;;
58864;SDS011;45702;52.982;6.658;2024-02-21T06:25:38;92.53;;;15.80;;
58864;SDS011;45702;52.982;6.658;2024-02-21T06:28:05;98.97;;;17.02;;
58864;SDS011;45702;52.982;6.658;2024-02-21T06:30:31;88.55;;;17.60;;
58864;SDS011;45702;52.982;6.658;2024-02-21T06:33:00;78.63;;;17.65;;
58864;SDS011;45702;52.982;6.658;2024-02-21T06:35:31;100.00;;;18.73;;
58864;SDS011;45702;52.982;6.658;2024-02-21T06:37:57;81.88;;;16.15;;
58864;SDS011;45702;52.982;6.658;2024-02-21T06:40:23;95.20;;;18.42;;
58864;SDS011;45702;52.982;6.658;2024-02-21T06:42:50;79.88;;;17.88;;
58864;SDS011;45702;52.982;6.658;2024-02-21T06:45:16;91.30;;;17.90;;
58864;SDS011;45702;52.982;6.658;2024-02-21T06:47:42;86.55;;;18.20;;
58864;SDS011;45702;52.982;6.658;2024-02-21T06:50:08;94.90;;;17.55;;
58864;SDS011;45702;52.982;6.658;2024-02-21T06:52:35;85.13;;;16.75;;
58864;SDS011;45702;52.982;6.658;2024-02-21T06:55:01;82.53;;;16.48;;
58864;SDS011;45702;52.982;6.658;2024-02-21T06:57:31;68.40;;;16.52;;
58864;SDS011;45702;52.982;6.658;2024-02-21T06:59:57;84.38;;;17.80;;
58864;SDS011;45702;52.982;6.658;2024-02-21T07:02:23;80.10;;;17.02;;
58864;SDS011;45702;52.982;6.658;2024-02-21T07:04:49;78.75;;;17.30;;
58864;SDS011;45702;52.982;6.658;2024-02-21T07:07:15;78.68;;;17.98;;
58864;SDS011;45702;52.982;6.658;2024-02-21T07:09:41;82.97;;;18.73;;
58864;SDS011;45702;52.982;6.658;2024-02-21T07:12:07;73.78;;;17.85;;
58864;SDS011;45702;52.982;6.658;2024-02-21T07:14:33;70.93;;;18.25;;
58864;SDS011;45702;52.982;6.658;2024-02-21T07:17:00;86.22;;;17.90;;
58864;SDS011;45702;52.982;6.658;2024-02-21T07:19:26;72.43;;;18.30;;
58864;SDS011;45702;52.982;6.658;2024-02-21T07:21:52;77.85;;;18.35;;
58864;SDS011;45702;52.982;6.658;2024-02-21T07:24:18;82.80;;;19.25;;
58864;SDS011;45702;52.982;6.658;2024-02-21T07:26:44;68.00;;;18.45;;
58864;SDS011;45702;52.982;6.658;2024-02-21T07:29:11;61.33;;;17.35;;
58864;SDS011;45702;52.982;6.658;2024-02-21T07:31:38;68.95;;;15.93;;
58864;SDS011;45702;52.982;6.658;2024-02-21T07:34:05;76.70;;;17.00;;
58864;SDS011;45702;52.982;6.658;2024-02-21T07:36:32;74.55;;;17.17;;
58864;SDS011;45702;52.982;6.658;2024-02-21T07:38:58;59.00;;;15.95;;
58864;SDS011;45702;52.982;6.658;2024-02-21T07:41:25;61.47;;;17.08;;
58864;SDS011;45702;52.982;6.658;2024-02-21T07:43:51;55.38;;;15.95;;
58864;SDS011;45702;52.982;6.658;2024-02-21T07:46:18;67.63;;;16.17;;
58864;SDS011;45702;52.982;6.658;2024-02-21T07:48:47;63.45;;;16.52;;
58864;SDS011;45702;52.982;6.658;2024-02-21T07:51:14;64.40;;;16.35;;
58864;SDS011;45702;52.982;6.658;2024-02-21T07:53:43;60.35;;;17.23;;
58864;SDS011;45702;52.982;6.658;2024-02-21T07:56:14;62.35;;;17.63;;
58864;SDS011;45702;52.982;6.658;2024-02-21T07:58:40;56.78;;;19.63;;
58864;SDS011;45702;52.982;6.658;2024-02-21T08:01:06;70.45;;;19.67;;
58864;SDS011;45702;52.982;6.658;2024-02-21T08:03:33;71.20;;;21.00;;
58864;SDS011;45702;52.982;6.658;2024-02-21T08:05:59;68.78;;;19.25;;
58864;SDS011;45702;52.982;6.658;2024-02-21T08:08:25;66.05;;;19.63;;
58864;SDS011;45702;52.982;6.658;2024-02-21T08:10:51;64.05;;;20.35;;
58864;SDS011;45702;52.982;6.658;2024-02-21T08:13:17;70.53;;;20.60;;
58864;SDS011;45702;52.982;6.658;2024-02-21T08:15:44;69.15;;;20.95;;
58864;SDS011;45702;52.982;6.658;2024-02-21T08:18:10;74.93;;;20.13;;
58864;SDS011;45702;52.982;6.658;2024-02-21T08:20:36;72.28;;;21.38;;
58864;SDS011;45702;52.982;6.658;2024-02-21T08:23:02;70.65;;;20.42;;
58864;SDS011;45702;52.982;6.658;2024-02-21T08:25:28;65.05;;;20.58;;
58864;SDS011;45702;52.982;6.658;2024-02-21T08:27:57;69.35;;;20.73;;
58864;SDS011;45702;52.982;6.658;2024-02-21T08:30:24;60.90;;;20.27;;
58864;SDS011;45702;52.982;6.658;2024-02-21T08:32:50;81.00;;;21.52;;
58864;SDS011;45702;52.982;6.658;2024-02-21T08:35:16;70.50;;;21.90;;
58864;SDS011;45702;52.982;6.658;2024-02-21T08:37:47;72.78;;;20.88;;
58864;SDS011;45702;52.982;6.658;2024-02-21T08:40:13;63.83;;;21.80;;
58864;SDS011;45702;52.982;6.658;2024-02-21T08:42:42;67.40;;;21.25;;
58864;SDS011;45702;52.982;6.658;2024-02-21T08:45:09;65.10;;;21.73;;
58864;SDS011;45702;52.982;6.658;2024-02-21T08:47:35;66.90;;;22.25;;
58864;SDS011;45702;52.982;6.658;2024-02-21T08:50:02;68.25;;;21.75;;
58864;SDS011;45702;52.982;6.658;2024-02-21T08:52:28;70.55;;;21.98;;
58864;SDS011;45702;52.982;6.658;2024-02-21T08:54:54;71.32;;;22.90;;
58864;SDS011;45702;52.982;6.658;2024-02-21T08:57:20;67.63;;;22.35;;
58864;SDS011;45702;52.982;6.658;2024-02-21T08:59:46;67.38;;;23.35;;
58864;SDS011;45702;52.982;6.658;2024-02-21T09:02:12;66.32;;;23.42;;
58864;SDS011;45702;52.982;6.658;2024-02-21T09:07:07;72.40;;;25.35;;
58864;SDS011;45702;52.982;6.658;2024-02-21T09:09:33;69.05;;;26.60;;
58864;SDS011;45702;52.982;6.658;2024-02-21T09:11:59;77.93;;;26.98;;
58864;SDS011;45702;52.982;6.658;2024-02-21T09:14:31;68.70;;;26.15;;
58864;SDS011;45702;52.982;6.658;2024-02-21T09:16:57;71.00;;;27.15;;
58864;SDS011;45702;52.982;6.658;2024-02-21T09:19:23;64.00;;;26.83;;
58864;SDS011;45702;52.982;6.658;2024-02-21T09:21:49;73.53;;;27.05;;
58864;SDS011;45702;52.982;6.658;2024-02-21T09:24:15;75.28;;;28.27;;
58864;SDS011;45702;52.982;6.658;2024-02-21T09:26:41;74.25;;;28.92;;
58864;SDS011;45702;52.982;6.658;2024-02-21T09:29:07;72.30;;;26.67;;
58864;SDS011;45702;52.982;6.658;2024-02-21T09:31:33;66.07;;;24.75;;
58864;SDS011;45702;52.982;6.658;2024-02-21T09:33:59;67.40;;;26.65;;
58864;SDS011;45702;52.982;6.658;2024-02-21T09:36:26;71.78;;;25.98;;
58864;SDS011;45702;52.982;6.658;2024-02-21T09:38:52;83.10;;;28.65;;
58864;SDS011;45702;52.982;6.658;2024-02-21T09:41:25;71.22;;;26.85;;
58864;SDS011;45702;52.982;6.658;2024-02-21T09:43:55;77.18;;;28.40;;
58864;SDS011;45702;52.982;6.658;2024-02-21T09:47:09;72.25;;;26.08;;
58864;SDS011;45702;52.982;6.658;2024-02-21T09:51:49;68.50;;;27.52;;
58864;SDS011;45702;52.982;6.658;2024-02-21T09:54:17;69.70;;;24.48;;
58864;SDS011;45702;52.982;6.658;2024-02-21T09:56:46;63.90;;;24.65;;
58864;SDS011;45702;52.982;6.658;2024-02-21T09:59:13;73.57;;;26.70;;
58864;SDS011;45702;52.982;6.658;2024-02-21T10:01:39;72.25;;;24.15;;
58864;SDS011;45702;52.982;6.658;2024-02-21T10:04:05;72.10;;;28.08;;
58864;SDS011;45702;52.982;6.658;2024-02-21T10:06:32;70.18;;;27.55;;
58864;SDS011;45702;52.982;6.658;2024-02-21T10:08:58;66.75;;;27.50;;
58864;SDS011;45702;52.982;6.658;2024-02-21T10:11:24;69.80;;;28.73;;
58864;SDS011;45702;52.982;6.658;2024-02-21T10:13:51;75.32;;;30.52;;
58864;SDS011;45702;52.982;6.658;2024-02-21T10:16:17;71.00;;;27.98;;
58864;SDS011;45702;52.982;6.658;2024-02-21T10:18:43;65.70;;;27.20;;
58864;SDS011;45702;52.982;6.658;2024-02-21T10:21:09;71.72;;;29.05;;
58864;SDS011;45702;52.982;6.658;2024-02-21T10:23:42;68.40;;;28.25;;
58864;SDS011;45702;52.982;6.658;2024-02-21T10:26:08;64.22;;;27.83;;
58864;SDS011;45702;52.982;6.658;2024-02-21T10:28:35;74.95;;;26.55;;
58864;SDS011;45702;52.982;6.658;2024-02-21T10:31:01;63.97;;;26.13;;
58864;SDS011;45702;52.982;6.658;2024-02-21T10:33:27;69.30;;;27.10;;
58864;SDS011;45702;52.982;6.658;2024-02-21T10:35:55;69.87;;;28.43;;
58864;SDS011;45702;52.982;6.658;2024-02-21T10:38:31;62.17;;;27.40;;
58864;SDS011;45702;52.982;6.658;2024-02-21T10:40:58;69.93;;;26.98;;
58864;SDS011;45702;52.982;6.658;2024-02-21T10:45:53;69.55;;;26.98;;
58864;SDS011;45702;52.982;6.658;2024-02-21T10:48:22;73.35;;;27.00;;
58864;SDS011;45702;52.982;6.658;2024-02-21T10:53:39;59.60;;;23.85;;
58864;SDS011;45702;52.982;6.658;2024-02-21T10:58:44;66.38;;;23.90;;
58864;SDS011;45702;52.982;6.658;2024-02-21T11:01:11;57.05;;;22.15;;
58864;SDS011;45702;52.982;6.658;2024-02-21T11:03:40;59.03;;;24.05;;
58864;SDS011;45702;52.982;6.658;2024-02-21T11:06:06;49.35;;;22.83;;
58864;SDS011;45702;52.982;6.658;2024-02-21T11:08:33;48.88;;;21.25;;
58864;SDS011;45702;52.982;6.658;2024-02-21T11:10:59;48.22;;;20.35;;
58864;SDS011;45702;52.982;6.658;2024-02-21T11:13:32;50.90;;;19.73;;
58864;SDS011;45702;52.982;6.658;2024-02-21T11:16:08;43.97;;;19.55;;
58864;SDS011;45702;52.982;6.658;2024-02-21T11:18:35;48.72;;;20.00;;
58864;SDS011;45702;52.982;6.658;2024-02-21T11:21:01;49.10;;;17.70;;
58864;SDS011;45702;52.982;6.658;2024-02-21T11:23:30;43.78;;;19.20;;
58864;SDS011;45702;52.982;6.658;2024-02-21T11:28:31;47.72;;;19.35;;
58864;SDS011;45702;52.982;6.658;2024-02-21T11:31:13;39.83;;;17.85;;
58864;SDS011;45702;52.982;6.658;2024-02-21T11:33:42;47.65;;;18.77;;
58864;SDS011;45702;52.982;6.658;2024-02-21T11:36:09;42.75;;;17.70;;
58864;SDS011;45702;52.982;6.658;2024-02-21T11:38:35;38.83;;;15.68;;
58864;SDS011;45702;52.982;6.658;2024-02-21T11:41:01;44.22;;;17.88;;
58864;SDS011;45702;52.982;6.658;2024-02-21T11:43:27;39.08;;;15.45;;
58864;SDS011;45702;52.982;6.658;2024-02-21T11:46:03;42.45;;;16.77;;
58864;SDS011;45702;52.982;6.658;2024-02-21T11:48:31;40.85;;;16.30;;
58864;SDS011;45702;52.982;6.658;2024-02-21T11:50:57;45.08;;;16.20;;
58864;SDS011;45702;52.982;6.658;2024-02-21T11:53:25;50.83;;;16.33;;
58864;SDS011;45702;52.982;6.658;2024-02-21T11:55:55;39.22;;;17.10;;
58864;SDS011;45702;52.982;6.658;2024-02-21T11:58:22;41.25;;;15.80;;
58864;SDS011;45702;52.982;6.658;2024-02-21T12:00:48;36.13;;;15.25;;
58864;SDS011;45702;52.982;6.658;2024-02-21T12:03:14;40.83;;;17.20;;
58864;SDS011;45702;52.982;6.658;2024-02-21T12:05:41;34.92;;;16.55;;
58864;SDS011;45702;52.982;6.658;2024-02-21T12:08:07;45.30;;;16.45;;
58864;SDS011;45702;52.982;6.658;2024-02-21T12:10:33;44.53;;;17.20;;
58864;SDS011;45702;52.982;6.658;2024-02-21T12:13:07;42.38;;;17.52;;
58864;SDS011;45702;52.982;6.658;2024-02-21T12:15:33;31.80;;;14.95;;
58864;SDS011;45702;52.982;6.658;2024-02-21T12:18:01;43.03;;;16.10;;
58864;SDS011;45702;52.982;6.658;2024-02-21T12:20:28;39.28;;;17.65;;
58864;SDS011;45702;52.982;6.658;2024-02-21T12:22:54;36.72;;;16.25;;
58864;SDS011;45702;52.982;6.658;2024-02-21T12:25:21;32.03;;;14.85;;
58864;SDS011;45702;52.982;6.658;2024-02-21T12:27:48;39.63;;;15.88;;
58864;SDS011;45702;52.982;6.658;2024-02-21T12:30:15;37.22;;;15.40;;
58864;SDS011;45702;52.982;6.658;2024-02-21T12:32:41;35.83;;;14.20;;
58864;SDS011;45702;52.982;6.658;2024-02-21T12:35:07;35.55;;;14.70;;
58864;SDS011;45702;52.982;6.658;2024-02-21T12:37:33;31.02;;;12.32;;
58864;SDS011;45702;52.982;6.658;2024-02-21T12:39:59;35.08;;;15.55;;
58864;SDS011;45702;52.982;6.658;2024-02-21T12:42:26;31.80;;;14.25;;
58864;SDS011;45702;52.982;6.658;2024-02-21T12:44:53;38.03;;;15.13;;
58864;SDS011;45702;52.982;6.658;2024-02-21T12:47:19;31.67;;;13.52;;
58864;SDS011;45702;52.982;6.658;2024-02-21T12:49:48;37.72;;;13.23;;
58864;SDS011;45702;52.982;6.658;2024-02-21T12:52:14;26.98;;;12.73;;
58864;SDS011;45702;52.982;6.658;2024-02-21T12:54:41;29.33;;;13.20;;
58864;SDS011;45702;52.982;6.658;2024-02-21T12:57:10;34.22;;;13.52;;
58864;SDS011;45702;52.982;6.658;2024-02-21T12:59:36;29.15;;;12.18;;
58864;SDS011;45702;52.982;6.658;2024-02-21T13:02:02;25.15;;;12.30;;
58864;SDS011;45702;52.982;6.658;2024-02-21T13:04:28;28.55;;;12.50;;
58864;SDS011;45702;52.982;6.658;2024-02-21T13:06:54;29.55;;;10.57;;
58864;SDS011;45702;52.982;6.658;2024-02-21T13:09:20;21.80;;;10.68;;
58864;SDS011;45702;52.982;6.658;2024-02-21T13:11:46;24.92;;;10.50;;
58864;SDS011;45702;52.982;6.658;2024-02-21T13:14:13;20.90;;;8.63;;
58864;SDS011;45702;52.982;6.658;2024-02-21T13:16:39;25.10;;;9.85;;
58864;SDS011;45702;52.982;6.658;2024-02-21T13:19:06;17.75;;;7.78;;
58864;SDS011;45702;52.982;6.658;2024-02-21T13:21:33;23.57;;;9.73;;
58864;SDS011;45702;52.982;6.658;2024-02-21T13:23:59;19.60;;;9.02;;
58864;SDS011;45702;52.982;6.658;2024-02-21T13:26:25;18.73;;;8.98;;
58864;SDS011;45702;52.982;6.658;2024-02-21T13:28:51;21.40;;;9.50;;
58864;SDS011;45702;52.982;6.658;2024-02-21T13:31:17;18.23;;;8.82;;
58864;SDS011;45702;52.982;6.658;2024-02-21T13:33:43;20.08;;;9.55;;
58864;SDS011;45702;52.982;6.658;2024-02-21T13:36:10;21.63;;;9.60;;
58864;SDS011;45702;52.982;6.658;2024-02-21T13:38:36;17.83;;;9.02;;
58864;SDS011;45702;52.982;6.658;2024-02-21T13:41:04;25.20;;;10.48;;
58864;SDS011;45702;52.982;6.658;2024-02-21T13:43:31;22.97;;;10.60;;
58864;SDS011;45702;52.982;6.658;2024-02-21T13:46:00;18.35;;;9.43;;
58864;SDS011;45702;52.982;6.658;2024-02-21T13:48:34;20.95;;;9.88;;
58864;SDS011;45702;52.982;6.658;2024-02-21T13:51:01;19.52;;;9.43;;
58864;SDS011;45702;52.982;6.658;2024-02-21T13:53:30;22.90;;;10.80;;
58864;SDS011;45702;52.982;6.658;2024-02-21T13:55:56;23.88;;;10.35;;
58864;SDS011;45702;52.982;6.658;2024-02-21T13:58:22;22.48;;;9.25;;
58864;SDS011;45702;52.982;6.658;2024-02-21T14:00:48;26.42;;;10.60;;
58864;SDS011;45702;52.982;6.658;2024-02-21T14:03:16;25.67;;;11.52;;
58864;SDS011;45702;52.982;6.658;2024-02-21T14:05:44;32.97;;;11.50;;
58864;SDS011;45702;52.982;6.658;2024-02-21T14:08:10;22.85;;;11.23;;
58864;SDS011;45702;52.982;6.658;2024-02-21T14:10:36;28.30;;;11.40;;
58864;SDS011;45702;52.982;6.658;2024-02-21T14:13:02;20.33;;;11.02;;
58864;SDS011;45702;52.982;6.658;2024-02-21T14:15:28;22.98;;;11.10;;
58864;SDS011;45702;52.982;6.658;2024-02-21T14:17:55;28.33;;;11.52;;
58864;SDS011;45702;52.982;6.658;2024-02-21T14:20:21;23.05;;;9.25;;
58864;SDS011;45702;52.982;6.658;2024-02-21T14:22:47;24.17;;;11.15;;
58864;SDS011;45702;52.982;6.658;2024-02-21T14:25:13;24.60;;;11.57;;
58864;SDS011;45702;52.982;6.658;2024-02-21T14:27:40;27.48;;;11.50;;
58864;SDS011;45702;52.982;6.658;2024-02-21T14:30:08;22.00;;;10.32;;
58864;SDS011;45702;52.982;6.658;2024-02-21T14:32:38;24.65;;;10.32;;
58864;SDS011;45702;52.982;6.658;2024-02-21T14:35:06;23.08;;;11.65;;